sensor_id;sensor_type;location;lat;lon;timestamp;P1;durP1;ratioP1;P2;durP2;ratioP2
32693;SDS011;19084;44.716;10.218;2022-11-03T00:00:02;133.20;;;62.08;;
32693;SDS011;19084;44.716;10.218;2022-11-03T00:02:43;143.00;;;63.25;;
32693;SDS011;19084;44.716;10.218;2022-11-03T00:05:15;133.13;;;60.05;;
32693;SDS011;19084;44.716;10.218;2022-11-03T00:08:04;141.75;;;61.40;;
32693;SDS011;19084;44.716;10.218;2022-11-03T00:10:37;125.80;;;59.45;;
32693;SDS011;19084;44.716;10.218;2022-11-03T00:13:10;124.38;;;58.92;;
32693;SDS011;19084;44.716;10.218;2022-11-03T00:15:49;138.90;;;59.50;;
32693;SDS011;19084;44.716;10.218;2022-11-03T00:18:22;133.25;;;59.80;;
32693;SDS011;19084;44.716;10.218;2022-11-03T00:20:55;132.55;;;57.83;;
32693;SDS011;19084;44.716;10.218;2022-11-03T00:23:30;126.07;;;57.15;;
32693;SDS011;19084;44.716;10.218;2022-11-03T00:26:13;136.55;;;60.97;;
32693;SDS011;19084;44.716;10.218;2022-11-03T00:28:48;136.30;;;58.58;;
32693;SDS011;19084;44.716;10.218;2022-11-03T00:31:24;123.53;;;54.90;;
32693;SDS011;19084;44.716;10.218;2022-11-03T00:33:58;138.95;;;59.40;;
32693;SDS011;19084;44.716;10.218;2022-11-03T00:36:33;130.90;;;57.65;;
32693;SDS011;19084;44.716;10.218;2022-11-03T00:41:40;95.53;;;47.80;;
32693;SDS011;19084;44.716;10.218;2022-11-03T00:44:13;94.93;;;48.38;;
32693;SDS011;19084;44.716;10.218;2022-11-03T00:46:45;101.72;;;49.83;;
32693;SDS011;19084;44.716;10.218;2022-11-03T00:49:18;109.85;;;52.95;;
32693;SDS011;19084;44.716;10.218;2022-11-03T00:51:51;99.47;;;48.63;;
32693;SDS011;19084;44.716;10.218;2022-11-03T00:54:23;93.97;;;47.83;;
32693;SDS011;19084;44.716;10.218;2022-11-03T00:56:56;98.85;;;47.67;;
32693;SDS011;19084;44.716;10.218;2022-11-03T00:59:28;95.68;;;47.58;;
32693;SDS011;19084;44.716;10.218;2022-11-03T01:02:01;98.57;;;49.22;;
32693;SDS011;19084;44.716;10.218;2022-11-03T01:04:33;103.32;;;50.83;;
32693;SDS011;19084;44.716;10.218;2022-11-03T01:07:21;103.95;;;49.83;;
32693;SDS011;19084;44.716;10.218;2022-11-03T01:09:54;104.15;;;50.17;;
32693;SDS011;19084;44.716;10.218;2022-11-03T01:12:27;104.93;;;49.97;;
32693;SDS011;19084;44.716;10.218;2022-11-03T01:14:59;93.45;;;48.97;;
32693;SDS011;19084;44.716;10.218;2022-11-03T01:17:32;96.90;;;47.72;;
32693;SDS011;19084;44.716;10.218;2022-11-03T01:20:05;106.72;;;48.92;;
32693;SDS011;19084;44.716;10.218;2022-11-03T01:22:38;97.03;;;47.03;;
32693;SDS011;19084;44.716;10.218;2022-11-03T01:25:10;94.88;;;45.00;;
32693;SDS011;19084;44.716;10.218;2022-11-03T01:27:43;93.78;;;47.88;;
32693;SDS011;19084;44.716;10.218;2022-11-03T01:30:15;96.15;;;46.00;;
32693;SDS011;19084;44.716;10.218;2022-11-03T01:32:48;76.63;;;41.13;;
32693;SDS011;19084;44.716;10.218;2022-11-03T01:35:21;74.07;;;40.20;;
32693;SDS011;19084;44.716;10.218;2022-11-03T01:37:53;76.35;;;40.80;;
32693;SDS011;19084;44.716;10.218;2022-11-03T01:40:27;78.78;;;40.22;;
32693;SDS011;19084;44.716;10.218;2022-11-03T01:45:50;85.15;;;43.05;;
32693;SDS011;19084;44.716;10.218;2022-11-03T01:48:33;84.80;;;43.25;;
32693;SDS011;19084;44.716;10.218;2022-11-03T01:51:07;90.65;;;45.80;;
32693;SDS011;19084;44.716;10.218;2022-11-03T01:53:44;92.65;;;43.38;;
32693;SDS011;19084;44.716;10.218;2022-11-03T01:56:19;88.68;;;43.72;;
32693;SDS011;19084;44.716;10.218;2022-11-03T01:58:53;89.82;;;44.45;;
32693;SDS011;19084;44.716;10.218;2022-11-03T02:01:26;87.82;;;42.70;;
32693;SDS011;19084;44.716;10.218;2022-11-03T02:04:02;85.00;;;42.75;;
32693;SDS011;19084;44.716;10.218;2022-11-03T02:06:40;80.30;;;42.58;;
32693;SDS011;19084;44.716;10.218;2022-11-03T02:09:14;82.50;;;42.08;;
32693;SDS011;19084;44.716;10.218;2022-11-03T02:11:46;78.20;;;41.30;;
32693;SDS011;19084;44.716;10.218;2022-11-03T02:14:36;76.32;;;39.85;;
32693;SDS011;19084;44.716;10.218;2022-11-03T02:17:13;66.82;;;38.55;;
32693;SDS011;19084;44.716;10.218;2022-11-03T02:19:50;70.53;;;37.47;;
32693;SDS011;19084;44.716;10.218;2022-11-03T02:22:42;69.68;;;37.20;;
32693;SDS011;19084;44.716;10.218;2022-11-03T02:28:11;65.47;;;36.55;;
32693;SDS011;19084;44.716;10.218;2022-11-03T02:36:17;57.72;;;33.63;;
32693;SDS011;19084;44.716;10.218;2022-11-03T02:38:56;63.88;;;35.15;;
32693;SDS011;19084;44.716;10.218;2022-11-03T02:41:36;67.40;;;35.72;;
32693;SDS011;19084;44.716;10.218;2022-11-03T02:44:12;62.30;;;33.95;;
32693;SDS011;19084;44.716;10.218;2022-11-03T02:46:48;60.42;;;34.38;;
32693;SDS011;19084;44.716;10.218;2022-11-03T02:49:26;63.40;;;34.40;;
32693;SDS011;19084;44.716;10.218;2022-11-03T02:51:59;63.70;;;34.20;;
32693;SDS011;19084;44.716;10.218;2022-11-03T02:54:40;64.35;;;35.00;;
32693;SDS011;19084;44.716;10.218;2022-11-03T02:57:19;67.70;;;35.03;;
32693;SDS011;19084;44.716;10.218;2022-11-03T02:59:59;61.83;;;35.78;;
32693;SDS011;19084;44.716;10.218;2022-11-03T03:02:38;62.83;;;35.63;;
32693;SDS011;19084;44.716;10.218;2022-11-03T03:05:19;60.85;;;34.53;;
32693;SDS011;19084;44.716;10.218;2022-11-03T03:07:59;62.92;;;34.33;;
32693;SDS011;19084;44.716;10.218;2022-11-03T03:10:38;60.78;;;35.83;;
32693;SDS011;19084;44.716;10.218;2022-11-03T03:13:16;65.55;;;35.50;;
32693;SDS011;19084;44.716;10.218;2022-11-03T03:21:25;68.70;;;33.97;;
32693;SDS011;19084;44.716;10.218;2022-11-03T03:24:06;65.60;;;36.05;;
32693;SDS011;19084;44.716;10.218;2022-11-03T03:26:46;64.25;;;35.08;;
32693;SDS011;19084;44.716;10.218;2022-11-03T03:29:21;63.05;;;33.63;;
32693;SDS011;19084;44.716;10.218;2022-11-03T03:32:00;61.33;;;33.92;;
32693;SDS011;19084;44.716;10.218;2022-11-03T03:34:38;63.90;;;32.60;;
32693;SDS011;19084;44.716;10.218;2022-11-03T03:37:14;58.58;;;32.00;;
32693;SDS011;19084;44.716;10.218;2022-11-03T03:39:50;56.15;;;31.83;;
32693;SDS011;19084;44.716;10.218;2022-11-03T03:42:27;53.13;;;30.00;;
32693;SDS011;19084;44.716;10.218;2022-11-03T03:45:02;49.97;;;28.33;;
32693;SDS011;19084;44.716;10.218;2022-11-03T03:50:10;43.65;;;26.30;;
32693;SDS011;19084;44.716;10.218;2022-11-03T03:52:43;43.35;;;25.52;;
32693;SDS011;19084;44.716;10.218;2022-11-03T03:55:16;41.65;;;24.60;;
32693;SDS011;19084;44.716;10.218;2022-11-03T03:57:52;43.13;;;25.17;;
32693;SDS011;19084;44.716;10.218;2022-11-03T04:00:30;39.33;;;22.95;;
32693;SDS011;19084;44.716;10.218;2022-11-03T04:03:02;36.05;;;21.90;;
32693;SDS011;19084;44.716;10.218;2022-11-03T04:05:35;38.20;;;21.92;;
32693;SDS011;19084;44.716;10.218;2022-11-03T04:08:08;38.45;;;22.00;;
32693;SDS011;19084;44.716;10.218;2022-11-03T04:10:45;37.92;;;20.92;;
32693;SDS011;19084;44.716;10.218;2022-11-03T04:13:32;30.90;;;20.40;;
32693;SDS011;19084;44.716;10.218;2022-11-03T04:16:21;33.85;;;20.30;;
32693;SDS011;19084;44.716;10.218;2022-11-03T04:19:10;32.28;;;19.50;;
32693;SDS011;19084;44.716;10.218;2022-11-03T04:21:58;29.25;;;18.67;;
32693;SDS011;19084;44.716;10.218;2022-11-03T04:24:47;29.00;;;17.77;;
32693;SDS011;19084;44.716;10.218;2022-11-03T04:29:56;27.90;;;17.13;;
32693;SDS011;19084;44.716;10.218;2022-11-03T04:32:45;27.30;;;17.05;;
32693;SDS011;19084;44.716;10.218;2022-11-03T04:35:21;28.67;;;16.90;;
32693;SDS011;19084;44.716;10.218;2022-11-03T04:37:57;29.35;;;17.50;;
32693;SDS011;19084;44.716;10.218;2022-11-03T04:40:33;24.17;;;16.35;;
32693;SDS011;19084;44.716;10.218;2022-11-03T04:43:10;27.23;;;16.08;;
32693;SDS011;19084;44.716;10.218;2022-11-03T04:45:46;26.33;;;15.48;;
32693;SDS011;19084;44.716;10.218;2022-11-03T04:48:20;23.30;;;15.05;;
32693;SDS011;19084;44.716;10.218;2022-11-03T04:50:54;25.58;;;15.55;;
32693;SDS011;19084;44.716;10.218;2022-11-03T04:53:31;24.13;;;15.85;;
32693;SDS011;19084;44.716;10.218;2022-11-03T04:56:07;24.52;;;15.82;;
32693;SDS011;19084;44.716;10.218;2022-11-03T04:58:46;26.55;;;15.77;;
32693;SDS011;19084;44.716;10.218;2022-11-03T05:01:20;27.95;;;16.13;;
32693;SDS011;19084;44.716;10.218;2022-11-03T05:03:55;25.75;;;13.82;;
32693;SDS011;19084;44.716;10.218;2022-11-03T05:06:28;22.85;;;14.30;;
32693;SDS011;19084;44.716;10.218;2022-11-03T05:09:01;21.58;;;14.55;;
32693;SDS011;19084;44.716;10.218;2022-11-03T05:11:43;20.42;;;13.23;;
32693;SDS011;19084;44.716;10.218;2022-11-03T05:14:21;23.40;;;14.93;;
32693;SDS011;19084;44.716;10.218;2022-11-03T05:16:56;24.67;;;13.82;;
32693;SDS011;19084;44.716;10.218;2022-11-03T05:19:35;21.15;;;13.38;;
32693;SDS011;19084;44.716;10.218;2022-11-03T05:22:12;21.90;;;13.52;;
32693;SDS011;19084;44.716;10.218;2022-11-03T05:24:54;21.05;;;12.55;;
32693;SDS011;19084;44.716;10.218;2022-11-03T05:27:34;24.27;;;14.13;;
32693;SDS011;19084;44.716;10.218;2022-11-03T05:30:11;22.13;;;12.85;;
32693;SDS011;19084;44.716;10.218;2022-11-03T05:32:45;21.70;;;13.18;;
32693;SDS011;19084;44.716;10.218;2022-11-03T05:35:19;22.90;;;14.43;;
32693;SDS011;19084;44.716;10.218;2022-11-03T05:37:53;20.10;;;12.57;;
32693;SDS011;19084;44.716;10.218;2022-11-03T05:40:26;22.90;;;13.02;;
32693;SDS011;19084;44.716;10.218;2022-11-03T05:42:59;20.27;;;13.38;;
32693;SDS011;19084;44.716;10.218;2022-11-03T05:45:33;24.20;;;13.50;;
32693;SDS011;19084;44.716;10.218;2022-11-03T05:48:12;22.70;;;12.77;;
32693;SDS011;19084;44.716;10.218;2022-11-03T05:50:51;18.97;;;11.93;;
32693;SDS011;19084;44.716;10.218;2022-11-03T05:53:27;16.67;;;11.65;;
32693;SDS011;19084;44.716;10.218;2022-11-03T05:56:01;19.27;;;11.27;;
32693;SDS011;19084;44.716;10.218;2022-11-03T05:58:38;19.40;;;10.98;;
32693;SDS011;19084;44.716;10.218;2022-11-03T06:01:15;16.98;;;10.52;;
32693;SDS011;19084;44.716;10.218;2022-11-03T06:03:55;15.82;;;9.82;;
32693;SDS011;19084;44.716;10.218;2022-11-03T06:06:34;17.65;;;11.02;;
32693;SDS011;19084;44.716;10.218;2022-11-03T06:09:17;17.10;;;10.00;;
32693;SDS011;19084;44.716;10.218;2022-11-03T06:11:55;16.20;;;11.38;;
32693;SDS011;19084;44.716;10.218;2022-11-03T06:14:30;20.50;;;11.75;;
32693;SDS011;19084;44.716;10.218;2022-11-03T06:19:39;18.42;;;11.18;;
32693;SDS011;19084;44.716;10.218;2022-11-03T06:22:14;18.98;;;11.70;;
32693;SDS011;19084;44.716;10.218;2022-11-03T06:24:53;16.88;;;10.88;;
32693;SDS011;19084;44.716;10.218;2022-11-03T06:27:32;14.95;;;10.27;;
32693;SDS011;19084;44.716;10.218;2022-11-03T06:30:18;17.73;;;10.40;;
32693;SDS011;19084;44.716;10.218;2022-11-03T06:32:53;15.20;;;9.23;;
32693;SDS011;19084;44.716;10.218;2022-11-03T06:35:33;14.40;;;8.27;;
32693;SDS011;19084;44.716;10.218;2022-11-03T06:40:57;13.63;;;8.23;;
32693;SDS011;19084;44.716;10.218;2022-11-03T06:43:38;14.23;;;8.25;;
32693;SDS011;19084;44.716;10.218;2022-11-03T06:46:16;11.90;;;8.20;;
32693;SDS011;19084;44.716;10.218;2022-11-03T06:48:51;11.98;;;6.95;;
32693;SDS011;19084;44.716;10.218;2022-11-03T06:51:27;12.55;;;7.38;;
32693;SDS011;19084;44.716;10.218;2022-11-03T06:54:01;8.67;;;5.60;;
32693;SDS011;19084;44.716;10.218;2022-11-03T06:56:40;13.52;;;8.40;;
32693;SDS011;19084;44.716;10.218;2022-11-03T06:59:13;11.20;;;7.80;;
32693;SDS011;19084;44.716;10.218;2022-11-03T07:01:49;12.57;;;7.85;;
32693;SDS011;19084;44.716;10.218;2022-11-03T07:04:25;12.55;;;7.40;;
32693;SDS011;19084;44.716;10.218;2022-11-03T07:07:00;13.80;;;7.40;;
32693;SDS011;19084;44.716;10.218;2022-11-03T07:09:34;13.25;;;7.75;;
32693;SDS011;19084;44.716;10.218;2022-11-03T07:12:08;12.90;;;7.35;;
32693;SDS011;19084;44.716;10.218;2022-11-03T07:14:47;13.07;;;7.03;;
32693;SDS011;19084;44.716;10.218;2022-11-03T07:17:20;12.80;;;7.68;;
32693;SDS011;19084;44.716;10.218;2022-11-03T07:19:55;12.15;;;7.40;;
32693;SDS011;19084;44.716;10.218;2022-11-03T07:22:29;14.10;;;7.68;;
32693;SDS011;19084;44.716;10.218;2022-11-03T07:25:02;12.63;;;7.57;;
32693;SDS011;19084;44.716;10.218;2022-11-03T07:27:37;10.65;;;6.88;;
32693;SDS011;19084;44.716;10.218;2022-11-03T07:32:46;14.38;;;7.80;;
32693;SDS011;19084;44.716;10.218;2022-11-03T07:38:32;14.73;;;8.15;;
32693;SDS011;19084;44.716;10.218;2022-11-03T07:41:07;13.93;;;7.90;;
32693;SDS011;19084;44.716;10.218;2022-11-03T07:43:48;12.73;;;7.93;;
32693;SDS011;19084;44.716;10.218;2022-11-03T07:46:27;10.02;;;6.60;;
32693;SDS011;19084;44.716;10.218;2022-11-03T07:49:00;11.63;;;7.07;;
32693;SDS011;19084;44.716;10.218;2022-11-03T07:51:36;12.18;;;7.22;;
32693;SDS011;19084;44.716;10.218;2022-11-03T07:54:14;14.45;;;6.68;;
32693;SDS011;19084;44.716;10.218;2022-11-03T07:56:49;12.32;;;7.05;;
32693;SDS011;19084;44.716;10.218;2022-11-03T07:59:39;13.52;;;7.03;;
32693;SDS011;19084;44.716;10.218;2022-11-03T08:05:04;11.77;;;6.18;;
32693;SDS011;19084;44.716;10.218;2022-11-03T08:07:38;10.00;;;6.10;;
32693;SDS011;19084;44.716;10.218;2022-11-03T08:10:11;19.80;;;7.13;;
32693;SDS011;19084;44.716;10.218;2022-11-03T08:12:44;14.48;;;6.15;;
32693;SDS011;19084;44.716;10.218;2022-11-03T08:15:17;14.70;;;8.27;;
32693;SDS011;19084;44.716;10.218;2022-11-03T08:17:50;16.75;;;9.88;;
32693;SDS011;19084;44.716;10.218;2022-11-03T08:20:26;16.02;;;9.13;;
32693;SDS011;19084;44.716;10.218;2022-11-03T08:22:59;17.17;;;7.55;;
32693;SDS011;19084;44.716;10.218;2022-11-03T08:25:52;13.32;;;7.30;;
32693;SDS011;19084;44.716;10.218;2022-11-03T08:28:25;12.68;;;7.63;;
32693;SDS011;19084;44.716;10.218;2022-11-03T08:30:57;13.88;;;7.00;;
32693;SDS011;19084;44.716;10.218;2022-11-03T08:33:33;16.35;;;7.35;;
32693;SDS011;19084;44.716;10.218;2022-11-03T08:36:07;13.13;;;6.53;;
32693;SDS011;19084;44.716;10.218;2022-11-03T08:38:40;11.80;;;7.00;;
32693;SDS011;19084;44.716;10.218;2022-11-03T08:41:13;12.23;;;6.75;;
32693;SDS011;19084;44.716;10.218;2022-11-03T08:43:45;14.13;;;7.10;;
32693;SDS011;19084;44.716;10.218;2022-11-03T08:46:18;14.55;;;7.18;;
32693;SDS011;19084;44.716;10.218;2022-11-03T08:48:50;12.80;;;6.80;;
32693;SDS011;19084;44.716;10.218;2022-11-03T08:51:23;12.07;;;6.38;;
32693;SDS011;19084;44.716;10.218;2022-11-03T08:53:56;12.70;;;6.85;;
32693;SDS011;19084;44.716;10.218;2022-11-03T08:56:29;15.75;;;6.88;;
32693;SDS011;19084;44.716;10.218;2022-11-03T08:59:01;12.60;;;7.18;;
32693;SDS011;19084;44.716;10.218;2022-11-03T09:01:34;13.77;;;6.97;;
32693;SDS011;19084;44.716;10.218;2022-11-03T09:04:07;16.65;;;7.55;;
32693;SDS011;19084;44.716;10.218;2022-11-03T09:06:40;13.55;;;7.70;;
32693;SDS011;19084;44.716;10.218;2022-11-03T09:09:13;18.30;;;8.65;;
32693;SDS011;19084;44.716;10.218;2022-11-03T09:12:07;12.00;;;7.13;;
32693;SDS011;19084;44.716;10.218;2022-11-03T09:14:40;15.48;;;9.10;;
32693;SDS011;19084;44.716;10.218;2022-11-03T09:17:12;16.40;;;8.63;;
32693;SDS011;19084;44.716;10.218;2022-11-03T09:19:45;17.42;;;9.40;;
32693;SDS011;19084;44.716;10.218;2022-11-03T09:22:18;16.92;;;9.15;;
32693;SDS011;19084;44.716;10.218;2022-11-03T09:24:51;18.33;;;9.70;;
32693;SDS011;19084;44.716;10.218;2022-11-03T09:27:24;23.13;;;11.07;;
32693;SDS011;19084;44.716;10.218;2022-11-03T09:29:56;18.13;;;10.20;;
32693;SDS011;19084;44.716;10.218;2022-11-03T09:32:44;19.92;;;10.82;;
32693;SDS011;19084;44.716;10.218;2022-11-03T09:35:17;21.90;;;12.32;;
32693;SDS011;19084;44.716;10.218;2022-11-03T09:37:51;21.80;;;12.15;;
32693;SDS011;19084;44.716;10.218;2022-11-03T09:40:24;19.13;;;11.13;;
32693;SDS011;19084;44.716;10.218;2022-11-03T09:42:56;17.02;;;9.85;;
32693;SDS011;19084;44.716;10.218;2022-11-03T09:45:29;19.27;;;10.70;;
32693;SDS011;19084;44.716;10.218;2022-11-03T09:48:03;20.05;;;10.32;;
32693;SDS011;19084;44.716;10.218;2022-11-03T09:50:37;22.15;;;11.60;;
32693;SDS011;19084;44.716;10.218;2022-11-03T09:53:10;20.55;;;10.88;;
32693;SDS011;19084;44.716;10.218;2022-11-03T09:55:43;17.70;;;10.60;;
32693;SDS011;19084;44.716;10.218;2022-11-03T09:58:17;18.42;;;10.23;;
32693;SDS011;19084;44.716;10.218;2022-11-03T10:00:49;17.83;;;9.93;;
32693;SDS011;19084;44.716;10.218;2022-11-03T10:03:22;18.42;;;10.80;;
32693;SDS011;19084;44.716;10.218;2022-11-03T10:05:56;18.83;;;10.77;;
32693;SDS011;19084;44.716;10.218;2022-11-03T10:08:30;18.75;;;10.13;;
32693;SDS011;19084;44.716;10.218;2022-11-03T10:11:06;19.33;;;10.48;;
32693;SDS011;19084;44.716;10.218;2022-11-03T10:13:41;21.55;;;12.20;;
32693;SDS011;19084;44.716;10.218;2022-11-03T10:16:19;22.65;;;12.30;;
32693;SDS011;19084;44.716;10.218;2022-11-03T10:18:54;21.23;;;12.07;;
32693;SDS011;19084;44.716;10.218;2022-11-03T10:21:28;24.80;;;13.32;;
32693;SDS011;19084;44.716;10.218;2022-11-03T10:24:05;21.38;;;11.43;;
32693;SDS011;19084;44.716;10.218;2022-11-03T10:26:44;22.60;;;12.23;;
32693;SDS011;19084;44.716;10.218;2022-11-03T10:29:19;23.73;;;13.35;;
32693;SDS011;19084;44.716;10.218;2022-11-03T10:31:55;27.15;;;15.80;;
32693;SDS011;19084;44.716;10.218;2022-11-03T10:34:37;29.88;;;16.23;;
32693;SDS011;19084;44.716;10.218;2022-11-03T10:39:50;33.78;;;16.88;;
32693;SDS011;19084;44.716;10.218;2022-11-03T10:42:25;25.27;;;12.77;;
32693;SDS011;19084;44.716;10.218;2022-11-03T10:45:09;19.80;;;11.32;;
32693;SDS011;19084;44.716;10.218;2022-11-03T10:50:38;23.30;;;12.57;;
32693;SDS011;19084;44.716;10.218;2022-11-03T10:53:15;21.98;;;12.10;;
32693;SDS011;19084;44.716;10.218;2022-11-03T10:55:51;22.75;;;12.95;;
32693;SDS011;19084;44.716;10.218;2022-11-03T10:58:24;24.10;;;13.45;;
32693;SDS011;19084;44.716;10.218;2022-11-03T11:00:57;20.80;;;12.57;;
32693;SDS011;19084;44.716;10.218;2022-11-03T11:03:31;21.02;;;11.63;;
32693;SDS011;19084;44.716;10.218;2022-11-03T11:06:04;23.15;;;12.95;;
32693;SDS011;19084;44.716;10.218;2022-11-03T11:08:48;23.77;;;13.65;;
32693;SDS011;19084;44.716;10.218;2022-11-03T11:11:30;24.65;;;13.88;;
32693;SDS011;19084;44.716;10.218;2022-11-03T11:20:15;22.02;;;13.02;;
32693;SDS011;19084;44.716;10.218;2022-11-03T11:22:40;28.65;;;14.70;;
32693;SDS011;19084;44.716;10.218;2022-11-03T11:25:13;23.38;;;13.95;;
32693;SDS011;19084;44.716;10.218;2022-11-03T11:27:53;24.42;;;13.55;;
32693;SDS011;19084;44.716;10.218;2022-11-03T11:41:20;27.70;;;14.90;;
32693;SDS011;19084;44.716;10.218;2022-11-03T11:55:21;31.02;;;16.13;;
32693;SDS011;19084;44.716;10.218;2022-11-03T12:00:58;32.20;;;16.95;;
32693;SDS011;19084;44.716;10.218;2022-11-03T12:03:37;31.95;;;17.83;;
32693;SDS011;19084;44.716;10.218;2022-11-03T12:06:14;35.55;;;18.17;;
32693;SDS011;19084;44.716;10.218;2022-11-03T12:08:47;30.83;;;17.20;;
32693;SDS011;19084;44.716;10.218;2022-11-03T12:11:38;30.95;;;18.08;;
32693;SDS011;19084;44.716;10.218;2022-11-03T12:19:54;27.17;;;16.25;;
32693;SDS011;19084;44.716;10.218;2022-11-03T12:25:02;29.30;;;16.65;;
32693;SDS011;19084;44.716;10.218;2022-11-03T12:27:39;26.95;;;16.38;;
32693;SDS011;19084;44.716;10.218;2022-11-03T12:30:14;28.63;;;16.00;;
32693;SDS011;19084;44.716;10.218;2022-11-03T12:32:49;30.50;;;16.75;;
32693;SDS011;19084;44.716;10.218;2022-11-03T12:35:24;26.37;;;15.80;;
32693;SDS011;19084;44.716;10.218;2022-11-03T12:37:57;27.63;;;16.15;;
32693;SDS011;19084;44.716;10.218;2022-11-03T12:40:30;26.60;;;16.30;;
32693;SDS011;19084;44.716;10.218;2022-11-03T12:43:03;27.02;;;17.05;;
32693;SDS011;19084;44.716;10.218;2022-11-03T12:45:36;30.25;;;16.33;;
32693;SDS011;19084;44.716;10.218;2022-11-03T12:48:09;29.10;;;16.90;;
32693;SDS011;19084;44.716;10.218;2022-11-03T12:50:42;28.17;;;17.27;;
32693;SDS011;19084;44.716;10.218;2022-11-03T12:53:15;27.60;;;16.33;;
32693;SDS011;19084;44.716;10.218;2022-11-03T12:55:48;33.17;;;16.35;;
32693;SDS011;19084;44.716;10.218;2022-11-03T12:58:21;27.30;;;16.85;;
32693;SDS011;19084;44.716;10.218;2022-11-03T13:00:53;30.83;;;16.40;;
32693;SDS011;19084;44.716;10.218;2022-11-03T13:03:33;32.75;;;15.57;;
32693;SDS011;19084;44.716;10.218;2022-11-03T13:06:07;30.55;;;17.77;;
32693;SDS011;19084;44.716;10.218;2022-11-03T13:08:41;28.30;;;16.48;;
32693;SDS011;19084;44.716;10.218;2022-11-03T13:11:17;25.90;;;15.30;;
32693;SDS011;19084;44.716;10.218;2022-11-03T13:14:05;27.92;;;16.85;;
32693;SDS011;19084;44.716;10.218;2022-11-03T13:16:38;30.35;;;17.45;;
32693;SDS011;19084;44.716;10.218;2022-11-03T13:19:11;28.65;;;16.63;;
32693;SDS011;19084;44.716;10.218;2022-11-03T13:21:44;26.30;;;16.38;;
32693;SDS011;19084;44.716;10.218;2022-11-03T13:24:16;27.10;;;16.02;;
32693;SDS011;19084;44.716;10.218;2022-11-03T13:26:49;24.77;;;14.82;;
32693;SDS011;19084;44.716;10.218;2022-11-03T13:29:22;23.05;;;14.77;;
32693;SDS011;19084;44.716;10.218;2022-11-03T13:31:54;25.67;;;14.95;;
32693;SDS011;19084;44.716;10.218;2022-11-03T13:34:27;25.73;;;14.98;;
32693;SDS011;19084;44.716;10.218;2022-11-03T13:37:01;25.33;;;15.40;;
32693;SDS011;19084;44.716;10.218;2022-11-03T13:39:35;24.80;;;16.23;;
32693;SDS011;19084;44.716;10.218;2022-11-03T13:42:08;28.38;;;17.63;;
32693;SDS011;19084;44.716;10.218;2022-11-03T13:44:41;27.75;;;16.42;;
32693;SDS011;19084;44.716;10.218;2022-11-03T13:47:14;27.88;;;17.25;;
32693;SDS011;19084;44.716;10.218;2022-11-03T13:49:47;25.73;;;16.80;;
32693;SDS011;19084;44.716;10.218;2022-11-03T13:52:43;25.73;;;15.70;;
32693;SDS011;19084;44.716;10.218;2022-11-03T13:55:16;24.42;;;15.57;;
32693;SDS011;19084;44.716;10.218;2022-11-03T13:58:09;26.88;;;15.88;;
32693;SDS011;19084;44.716;10.218;2022-11-03T14:01:02;32.88;;;18.77;;
32693;SDS011;19084;44.716;10.218;2022-11-03T14:03:35;27.73;;;17.70;;
32693;SDS011;19084;44.716;10.218;2022-11-03T14:06:28;27.13;;;16.92;;
32693;SDS011;19084;44.716;10.218;2022-11-03T14:09:01;30.00;;;18.80;;
32693;SDS011;19084;44.716;10.218;2022-11-03T14:11:34;32.30;;;18.95;;
32693;SDS011;19084;44.716;10.218;2022-11-03T14:14:22;31.15;;;18.83;;
32693;SDS011;19084;44.716;10.218;2022-11-03T14:16:55;34.72;;;21.58;;
32693;SDS011;19084;44.716;10.218;2022-11-03T14:19:28;38.25;;;22.25;;
32693;SDS011;19084;44.716;10.218;2022-11-03T14:22:13;32.50;;;19.67;;
32693;SDS011;19084;44.716;10.218;2022-11-03T14:24:46;38.13;;;20.67;;
32693;SDS011;19084;44.716;10.218;2022-11-03T14:27:18;29.77;;;18.33;;
32693;SDS011;19084;44.716;10.218;2022-11-03T14:29:51;29.58;;;17.92;;
32693;SDS011;19084;44.716;10.218;2022-11-03T14:32:24;30.02;;;18.50;;
32693;SDS011;19084;44.716;10.218;2022-11-03T14:34:57;29.00;;;18.38;;
32693;SDS011;19084;44.716;10.218;2022-11-03T14:37:30;28.15;;;18.40;;
32693;SDS011;19084;44.716;10.218;2022-11-03T14:40:04;32.78;;;17.75;;
32693;SDS011;19084;44.716;10.218;2022-11-03T14:42:38;28.00;;;17.23;;
32693;SDS011;19084;44.716;10.218;2022-11-03T14:45:10;32.65;;;19.13;;
32693;SDS011;19084;44.716;10.218;2022-11-03T14:47:43;29.15;;;18.20;;
32693;SDS011;19084;44.716;10.218;2022-11-03T14:50:15;27.45;;;18.33;;
32693;SDS011;19084;44.716;10.218;2022-11-03T14:52:48;30.38;;;18.58;;
32693;SDS011;19084;44.716;10.218;2022-11-03T14:55:21;33.75;;;19.30;;
32693;SDS011;19084;44.716;10.218;2022-11-03T14:57:54;28.70;;;18.10;;
32693;SDS011;19084;44.716;10.218;2022-11-03T15:00:26;31.42;;;19.95;;
32693;SDS011;19084;44.716;10.218;2022-11-03T15:02:59;32.72;;;18.50;;
32693;SDS011;19084;44.716;10.218;2022-11-03T15:05:33;30.83;;;19.25;;
32693;SDS011;19084;44.716;10.218;2022-11-03T15:08:21;31.75;;;18.35;;
32693;SDS011;19084;44.716;10.218;2022-11-03T15:10:54;26.50;;;18.33;;
32693;SDS011;19084;44.716;10.218;2022-11-03T15:13:27;27.10;;;18.30;;
32693;SDS011;19084;44.716;10.218;2022-11-03T15:16:00;30.42;;;17.35;;
32693;SDS011;19084;44.716;10.218;2022-11-03T15:18:33;26.92;;;17.63;;
32693;SDS011;19084;44.716;10.218;2022-11-03T15:21:05;29.48;;;17.48;;
32693;SDS011;19084;44.716;10.218;2022-11-03T15:23:38;32.33;;;18.65;;
32693;SDS011;19084;44.716;10.218;2022-11-03T15:26:31;33.33;;;19.75;;
32693;SDS011;19084;44.716;10.218;2022-11-03T15:29:04;33.42;;;21.25;;
32693;SDS011;19084;44.716;10.218;2022-11-03T15:31:37;34.13;;;17.92;;
32693;SDS011;19084;44.716;10.218;2022-11-03T15:34:10;26.08;;;17.00;;
32693;SDS011;19084;44.716;10.218;2022-11-03T15:36:42;26.48;;;17.90;;
32693;SDS011;19084;44.716;10.218;2022-11-03T15:39:16;31.30;;;17.48;;
32693;SDS011;19084;44.716;10.218;2022-11-03T15:41:49;32.45;;;20.52;;
32693;SDS011;19084;44.716;10.218;2022-11-03T15:44:21;36.35;;;19.38;;
32693;SDS011;19084;44.716;10.218;2022-11-03T15:46:54;29.38;;;18.83;;
32693;SDS011;19084;44.716;10.218;2022-11-03T15:49:27;35.05;;;21.60;;
32693;SDS011;19084;44.716;10.218;2022-11-03T15:51:59;32.33;;;21.25;;
32693;SDS011;19084;44.716;10.218;2022-11-03T15:54:32;38.30;;;23.30;;
32693;SDS011;19084;44.716;10.218;2022-11-03T15:57:12;31.95;;;20.30;;
32693;SDS011;19084;44.716;10.218;2022-11-03T15:59:49;29.98;;;19.60;;
32693;SDS011;19084;44.716;10.218;2022-11-03T16:02:28;33.55;;;21.35;;
32693;SDS011;19084;44.716;10.218;2022-11-03T16:05:16;36.42;;;21.30;;
32693;SDS011;19084;44.716;10.218;2022-11-03T16:07:56;36.83;;;22.40;;
32693;SDS011;19084;44.716;10.218;2022-11-03T16:10:31;44.88;;;26.73;;
32693;SDS011;19084;44.716;10.218;2022-11-03T16:13:04;36.28;;;22.48;;
32693;SDS011;19084;44.716;10.218;2022-11-03T16:15:37;35.08;;;22.92;;
32693;SDS011;19084;44.716;10.218;2022-11-03T16:18:10;42.72;;;27.33;;
32693;SDS011;19084;44.716;10.218;2022-11-03T16:20:43;33.53;;;21.70;;
32693;SDS011;19084;44.716;10.218;2022-11-03T16:23:16;38.35;;;23.77;;